Mankato, Kansas
Current Conditions -  °F | °C
As of 12:55 AM on Friday 19 Dec 2014 (Local Time) from KCNK Reporting Station
Overcast Overcast  
Wind Chill: 22°   Ceiling: 2100
Heat Index: 28°   Visibility: 7mi
Dew Point: 27°   Wind: 6mph
Humidity: 96%   Direction: 220°SW
Pressure: 30.23"   Gusts: NA
Location:  39.79°N, 98.21°W
Report Text: KCNK 190655Z AUTO 22005KT 7SM OVC021 M02/M03 A3023 RMK AO2 SLP252 T10221028
Loading
Personal Weather Stations






























Interactive Weather Map New forecast layout! Learn more

10-Day Weather Forecast

Advertisements
Track Severe Weather on mobile